Back to Top

Language: 

My Weather Underground Personal Weather Station Historical Data with Graphs...

Delerius Weather Station Historical Data
Daily Summary for February 2, 2017 Units:  English    Metric   Both
« Previous Day
Next Day »
Daily Weekly Monthly Yearly Custom
  High: Low: Average:
Temperature: 52.0 °F 47.9 °F 50.5 °F
Dew Point: 49.1 °F 44.2 °F 47.5 °F
Humidity: 97 % 78 % 90 %
Wind Speed: 18.0 mph 6.0 mph 11.9 mph
Wind Gust: 30.0 mph - -
Wind:- - SSE
Pressure: 29.46 in 29.17 in -
Precipitation: 0.02 in    
Historical Graphs
 
 
Tabular Data for February 2, 2017
Time Temperature Dew Point Pressure Wind Wind Speed Wind Gust Humidity Rainfall Rate (Hourly) solar Conditions
00:01 48.0 °F 45.2 °F 29.46 in South 8.0 mph -999.0 mph 90 % 0.00 in 0 W/m2
00:06 48.0 °F 45.2 °F 29.46 in South 8.0 mph -999.0 mph 90 % 0.00 in 0 W/m2
00:11 48.0 °F 45.2 °F 29.46 in South 8.0 mph -999.0 mph 90 % 0.00 in 0 W/m2
00:16 48.0 °F 45.2 °F 29.46 in South 8.0 mph -999.0 mph 90 % 0.00 in 0 W/m2
00:21 48.0 °F 45.2 °F 29.46 in South 8.0 mph -999.0 mph 90 % 0.00 in 0 W/m2
00:26 47.9 °F 45.1 °F 29.46 in SSW 8.0 mph -999.0 mph 90 % 0.00 in 0 W/m2
00:31 47.9 °F 45.1 °F 29.46 in SSW 8.0 mph -999.0 mph 90 % 0.00 in 0 W/m2
00:36 47.9 °F 45.1 °F 29.46 in SSW 8.0 mph -999.0 mph 90 % 0.00 in 0 W/m2
00:41 48.3 °F 45.5 °F 29.45 in SSW 10.0 mph -999.0 mph 90 % 0.00 in 0 W/m2
00:46 48.3 °F 45.5 °F 29.45 in SSW 10.0 mph -999.0 mph 90 % 0.00 in 0 W/m2
00:51 48.3 °F 45.5 °F 29.45 in SSW 10.0 mph -999.0 mph 90 % 0.00 in 0 W/m2
00:56 48.8 °F 46.0 °F 29.45 in SSW 9.0 mph -999.0 mph 90 % 0.00 in 0 W/m2
01:01 48.8 °F 46.0 °F 29.45 in SSW 9.0 mph -999.0 mph 90 % 0.00 in 0 W/m2
01:06 48.8 °F 46.0 °F 29.45 in SSW 9.0 mph -999.0 mph 90 % 0.00 in 0 W/m2
01:11 49.0 °F 46.5 °F 29.44 in SSW 8.0 mph -999.0 mph 91 % 0.00 in 0 W/m2
01:16 49.0 °F 46.5 °F 29.44 in SSW 8.0 mph -999.0 mph 91 % 0.00 in 0 W/m2
01:21 49.0 °F 46.5 °F 29.44 in SSW 8.0 mph -999.0 mph 91 % 0.00 in 0 W/m2
01:26 49.1 °F 46.6 °F 29.43 in South 10.0 mph -999.0 mph 91 % 0.00 in 0 W/m2
01:31 49.1 °F 46.6 °F 29.43 in South 10.0 mph -999.0 mph 91 % 0.00 in 0 W/m2
01:36 49.1 °F 46.6 °F 29.43 in South 10.0 mph -999.0 mph 91 % 0.00 in 0 W/m2
01:41 49.4 °F 46.9 °F 29.43 in South 10.0 mph -999.0 mph 91 % 0.00 in 0 W/m2
01:46 49.4 °F 46.9 °F 29.43 in South 10.0 mph -999.0 mph 91 % 0.00 in 0 W/m2
01:51 49.4 °F 46.9 °F 29.43 in South 10.0 mph -999.0 mph 91 % 0.00 in 0 W/m2
01:56 49.3 °F 46.8 °F 29.42 in South 9.0 mph -999.0 mph 91 % 0.00 in 0 W/m2
02:01 49.3 °F 46.8 °F 29.42 in South 9.0 mph -999.0 mph 91 % 0.00 in 0 W/m2
02:06 49.3 °F 46.8 °F 29.42 in South 9.0 mph -999.0 mph 91 % 0.00 in 0 W/m2
02:11 49.3 °F 46.8 °F 29.43 in South 8.0 mph -999.0 mph 91 % 0.00 in 0 W/m2
02:16 49.3 °F 46.8 °F 29.43 in South 8.0 mph -999.0 mph 91 % 0.00 in 0 W/m2
02:21 49.3 °F 46.8 °F 29.43 in South 8.0 mph -999.0 mph 91 % 0.00 in 0 W/m2
02:26 49.1 °F 46.9 °F 29.42 in South 6.0 mph -999.0 mph 92 % 0.00 in 0 W/m2
02:31 49.1 °F 46.9 °F 29.42 in South 6.0 mph -999.0 mph 92 % 0.00 in 0 W/m2
02:36 49.1 °F 46.9 °F 29.42 in South 6.0 mph -999.0 mph 92 % 0.00 in 0 W/m2
02:41 49.0 °F 46.8 °F 29.42 in SSE 7.0 mph -999.0 mph 92 % 0.00 in 0 W/m2
02:46 49.0 °F 46.8 °F 29.42 in SSE 7.0 mph -999.0 mph 92 % 0.00 in 0 W/m2
02:51 49.0 °F 46.8 °F 29.42 in SSE 7.0 mph -999.0 mph 92 % 0.00 in 0 W/m2
02:56 49.1 °F 47.2 °F 29.42 in SSE 9.0 mph -999.0 mph 93 % 0.00 in 0 W/m2
03:01 49.1 °F 47.2 °F 29.42 in SSE 9.0 mph -999.0 mph 93 % 0.00 in 0 W/m2
03:06 49.1 °F 47.2 °F 29.42 in SSE 9.0 mph -999.0 mph 93 % 0.00 in 0 W/m2
03:11 49.3 °F 47.4 °F 29.41 in South 8.0 mph -999.0 mph 93 % 0.00 in 0 W/m2
03:16 49.3 °F 47.4 °F 29.41 in South 8.0 mph -999.0 mph 93 % 0.00 in 0 W/m2
03:21 49.3 °F 47.4 °F 29.41 in South 8.0 mph -999.0 mph 93 % 0.00 in 0 W/m2
03:26 49.3 °F 47.6 °F 29.42 in SSE 8.0 mph -999.0 mph 94 % 0.00 in 0 W/m2
03:31 49.3 °F 47.6 °F 29.42 in SSE 8.0 mph -999.0 mph 94 % 0.00 in 0 W/m2
03:36 49.3 °F 47.6 °F 29.42 in SSE 8.0 mph -999.0 mph 94 % 0.00 in 0 W/m2
03:41 49.4 °F 47.7 °F 29.41 in SSE 8.0 mph -999.0 mph 94 % 0.00 in 0 W/m2
03:46 49.4 °F 47.7 °F 29.41 in SSE 8.0 mph -999.0 mph 94 % 0.00 in 0 W/m2
03:51 49.4 °F 47.7 °F 29.41 in SSE 8.0 mph -999.0 mph 94 % 0.00 in 0 W/m2
03:56 49.4 °F 48.0 °F 29.40 in SSE 8.0 mph -999.0 mph 95 % 0.00 in 0 W/m2
04:01 49.4 °F 48.0 °F 29.40 in SSE 8.0 mph -999.0 mph 95 % 0.00 in 0 W/m2
04:06 49.4 °F 48.0 °F 29.40 in SSE 8.0 mph -999.0 mph 95 % 0.00 in 0 W/m2
04:11 49.4 °F 48.3 °F 29.40 in SE 9.0 mph -999.0 mph 96 % 0.00 in 0 W/m2
04:16 49.4 °F 48.3 °F 29.40 in SE 9.0 mph -999.0 mph 96 % 0.00 in 0 W/m2
04:21 49.4 °F 48.3 °F 29.40 in SE 9.0 mph -999.0 mph 96 % 0.00 in 0 W/m2
04:26 49.5 °F 48.4 °F 29.40 in SE 9.0 mph -999.0 mph 96 % 0.00 in 0 W/m2
04:31 49.5 °F 48.4 °F 29.40 in SE 9.0 mph -999.0 mph 96 % 0.00 in 0 W/m2
04:36 49.5 °F 48.4 °F 29.40 in SE 9.0 mph -999.0 mph 96 % 0.00 in 0 W/m2
04:41 49.7 °F 48.6 °F 29.39 in SE 10.0 mph -999.0 mph 96 % 0.00 in 0 W/m2
04:46 49.7 °F 48.6 °F 29.39 in SE 10.0 mph -999.0 mph 96 % 0.00 in 0 W/m2
04:51 49.7 °F 48.6 °F 29.39 in SE 10.0 mph -999.0 mph 96 % 0.00 in 0 W/m2
04:56 49.7 °F 48.6 °F 29.38 in SE 11.0 mph -999.0 mph 96 % 0.01 in 0 W/m2
05:01 49.7 °F 48.6 °F 29.38 in SE 11.0 mph -999.0 mph 96 % 0.01 in 0 W/m2
05:06 49.7 °F 48.6 °F 29.38 in SE 11.0 mph -999.0 mph 96 % 0.01 in 0 W/m2
05:11 49.7 °F 48.9 °F 29.38 in SE 10.0 mph -999.0 mph 97 % 0.01 in 0 W/m2
05:16 49.7 °F 48.9 °F 29.38 in SE 10.0 mph -999.0 mph 97 % 0.01 in 0 W/m2
05:21 49.7 °F 48.9 °F 29.38 in SE 10.0 mph -999.0 mph 97 % 0.01 in 0 W/m2
05:26 49.7 °F 48.6 °F 29.38 in SE 10.0 mph -999.0 mph 96 % 0.01 in 0 W/m2
05:31 49.7 °F 48.6 °F 29.38 in SE 10.0 mph -999.0 mph 96 % 0.01 in 0 W/m2
05:36 49.7 °F 48.6 °F 29.38 in SE 10.0 mph -999.0 mph 96 % 0.01 in 0 W/m2
05:41 49.8 °F 48.7 °F 29.37 in SSE 10.0 mph -999.0 mph 96 % 0.01 in 0 W/m2
05:46 49.8 °F 48.7 °F 29.37 in SSE 10.0 mph -999.0 mph 96 % 0.01 in 0 W/m2
05:51 49.8 °F 48.7 °F 29.37 in SSE 10.0 mph -999.0 mph 96 % 0.01 in 0 W/m2
05:56 49.9 °F 48.8 °F 29.37 in SSE 9.0 mph -999.0 mph 96 % 0.00 in 0 W/m2
06:01 49.9 °F 48.8 °F 29.37 in SSE 9.0 mph -999.0 mph 96 % 0.00 in 0 W/m2
06:06 49.9 °F 48.8 °F 29.37 in SSE 9.0 mph -999.0 mph 96 % 0.00 in 0 W/m2
06:11 49.9 °F 48.8 °F 29.37 in SSE 10.0 mph -999.0 mph 96 % 0.00 in 0 W/m2
06:16 49.9 °F 48.8 °F 29.37 in SSE 10.0 mph -999.0 mph 96 % 0.00 in 0 W/m2
06:21 49.9 °F 48.8 °F 29.37 in SSE 10.0 mph -999.0 mph 96 % 0.00 in 0 W/m2
06:26 50.1 °F 49.0 °F 29.36 in SE 12.0 mph -999.0 mph 96 % 0.00 in 0 W/m2
06:31 50.1 °F 49.0 °F 29.36 in SE 12.0 mph -999.0 mph 96 % 0.00 in 0 W/m2
06:36 50.1 °F 49.0 °F 29.36 in SE 12.0 mph -999.0 mph 96 % 0.00 in 0 W/m2
06:41 50.2 °F 49.1 °F 29.36 in SSE 12.0 mph -999.0 mph 96 % 0.00 in 0 W/m2
06:46 50.2 °F 49.1 °F 29.36 in SSE 12.0 mph -999.0 mph 96 % 0.00 in 0 W/m2
06:51 50.2 °F 49.1 °F 29.36 in SSE 12.0 mph -999.0 mph 96 % 0.00 in 0 W/m2
06:56 50.2 °F 48.8 °F 29.35 in SE 11.0 mph -999.0 mph 95 % 0.00 in 0 W/m2
07:01 50.2 °F 48.8 °F 29.35 in SE 11.0 mph -999.0 mph 95 % 0.00 in 0 W/m2
07:06 50.2 °F 48.8 °F 29.35 in SE 11.0 mph -999.0 mph 95 % 0.00 in 0 W/m2
07:11 50.3 °F 48.9 °F 29.34 in SE 10.0 mph -999.0 mph 95 % 0.00 in 0 W/m2
07:16 50.3 °F 48.9 °F 29.34 in SE 10.0 mph -999.0 mph 95 % 0.00 in 0 W/m2
07:21 50.3 °F 48.9 °F 29.34 in SE 10.0 mph -999.0 mph 95 % 0.00 in 0 W/m2
07:26 50.4 °F 48.7 °F 29.33 in SE 11.0 mph -999.0 mph 94 % 0.00 in 0 W/m2
07:31 50.4 °F 48.7 °F 29.33 in SE 11.0 mph -999.0 mph 94 % 0.00 in 0 W/m2
07:36 50.4 °F 48.7 °F 29.33 in SE 11.0 mph -999.0 mph 94 % 0.00 in 0 W/m2
07:41 50.6 °F 48.7 °F 29.34 in SSE 12.0 mph -999.0 mph 93 % 0.00 in 0 W/m2
07:46 50.6 °F 48.7 °F 29.34 in SSE 12.0 mph -999.0 mph 93 % 0.00 in 0 W/m2
07:51 50.6 °F 48.7 °F 29.34 in SSE 12.0 mph -999.0 mph 93 % 0.00 in 0 W/m2
07:56 50.7 °F 48.5 °F 29.33 in SE 11.0 mph -999.0 mph 92 % 0.00 in 0 W/m2
08:01 50.7 °F 48.5 °F 29.33 in SE 11.0 mph -999.0 mph 92 % 0.00 in 0 W/m2
08:06 50.7 °F 48.5 °F 29.33 in SE 11.0 mph -999.0 mph 92 % 0.00 in 0 W/m2
08:11 50.6 °F 48.7 °F 29.33 in SE 11.0 mph -999.0 mph 93 % 0.00 in 0 W/m2
08:16 50.6 °F 48.7 °F 29.33 in SE 11.0 mph -999.0 mph 93 % 0.00 in 0 W/m2
08:21 50.6 °F 48.7 °F 29.33 in SE 11.0 mph -999.0 mph 93 % 0.00 in 0 W/m2
08:26 50.3 °F 48.6 °F 29.33 in SE 11.0 mph -999.0 mph 94 % 0.01 in 3 W/m2
08:31 50.3 °F 48.6 °F 29.33 in SE 11.0 mph -999.0 mph 94 % 0.01 in 3 W/m2
08:36 50.3 °F 48.6 °F 29.33 in SE 11.0 mph -999.0 mph 94 % 0.01 in 3 W/m2
08:41 50.0 °F 48.3 °F 29.32 in SSE 12.0 mph -999.0 mph 94 % 0.01 in 10 W/m2
08:46 50.0 °F 48.3 °F 29.32 in SSE 12.0 mph -999.0 mph 94 % 0.01 in 10 W/m2
08:51 50.0 °F 48.3 °F 29.32 in SSE 12.0 mph -999.0 mph 94 % 0.01 in 10 W/m2
08:56 50.1 °F 48.2 °F 29.32 in SSE 13.0 mph -999.0 mph 93 % 0.01 in 11 W/m2
09:01 50.1 °F 48.2 °F 29.32 in SSE 13.0 mph -999.0 mph 93 % 0.01 in 11 W/m2
09:06 50.1 °F 48.2 °F 29.32 in SSE 13.0 mph -999.0 mph 93 % 0.01 in 11 W/m2
09:11 50.3 °F 48.1 °F 29.31 in SSE 13.0 mph -999.0 mph 92 % 0.01 in 18 W/m2
09:16 50.3 °F 48.1 °F 29.31 in SSE 13.0 mph -999.0 mph 92 % 0.01 in 18 W/m2
09:21 50.3 °F 48.1 °F 29.31 in SSE 13.0 mph -999.0 mph 92 % 0.01 in 18 W/m2
09:26 50.5 °F 48.0 °F 29.31 in SSE 13.0 mph -999.0 mph 91 % 0.00 in 25 W/m2
09:31 50.5 °F 48.0 °F 29.31 in SSE 13.0 mph -999.0 mph 91 % 0.00 in 25 W/m2
09:36 50.5 °F 48.0 °F 29.31 in SSE 13.0 mph -999.0 mph 91 % 0.00 in 25 W/m2
09:41 50.6 °F 48.1 °F 29.31 in SSE 13.0 mph -999.0 mph 91 % 0.00 in 22 W/m2
09:46 50.6 °F 48.1 °F 29.31 in SSE 13.0 mph -999.0 mph 91 % 0.00 in 22 W/m2
09:51 50.6 °F 48.1 °F 29.31 in SSE 13.0 mph -999.0 mph 91 % 0.00 in 22 W/m2
09:56 50.6 °F 48.1 °F 29.31 in SSE 12.0 mph -999.0 mph 91 % 0.00 in 24 W/m2
10:01 50.6 °F 48.1 °F 29.31 in SSE 12.0 mph -999.0 mph 91 % 0.00 in 24 W/m2
10:06 50.6 °F 48.1 °F 29.31 in SSE 12.0 mph -999.0 mph 91 % 0.00 in 24 W/m2
10:11 50.6 °F 48.1 °F 29.30 in SSE 11.0 mph -999.0 mph 91 % 0.00 in 43 W/m2
10:16 50.6 °F 48.1 °F 29.30 in SSE 11.0 mph -999.0 mph 91 % 0.00 in 43 W/m2
10:21 50.6 °F 48.1 °F 29.30 in SSE 11.0 mph -999.0 mph 91 % 0.00 in 43 W/m2
10:26 50.6 °F 48.1 °F 29.30 in SSE 12.0 mph -999.0 mph 91 % 0.00 in 104 W/m2
10:31 50.6 °F 48.1 °F 29.30 in SSE 12.0 mph -999.0 mph 91 % 0.00 in 104 W/m2
10:36 50.6 °F 48.1 °F 29.30 in SSE 12.0 mph -999.0 mph 91 % 0.00 in 104 W/m2
10:41 50.8 °F 48.3 °F 29.29 in SSE 12.0 mph -999.0 mph 91 % 0.00 in 92 W/m2
10:46 50.8 °F 48.3 °F 29.29 in SSE 12.0 mph -999.0 mph 91 % 0.00 in 92 W/m2
10:51 50.8 °F 48.3 °F 29.29 in SSE 12.0 mph -999.0 mph 91 % 0.00 in 92 W/m2
10:56 50.7 °F 48.5 °F 29.28 in SSE 12.0 mph -999.0 mph 92 % 0.00 in 79 W/m2
11:01 50.7 °F 48.5 °F 29.28 in SSE 12.0 mph -999.0 mph 92 % 0.00 in 79 W/m2
11:06 50.7 °F 48.5 °F 29.28 in SSE 12.0 mph -999.0 mph 92 % 0.00 in 79 W/m2
11:11 50.6 °F 48.1 °F 29.27 in SSE 14.0 mph -999.0 mph 91 % 0.00 in 61 W/m2
11:16 50.6 °F 48.1 °F 29.27 in SSE 14.0 mph -999.0 mph 91 % 0.00 in 61 W/m2
11:21 50.6 °F 48.1 °F 29.27 in SSE 14.0 mph -999.0 mph 91 % 0.00 in 61 W/m2
11:26 50.6 °F 48.1 °F 29.26 in SSE 16.0 mph -999.0 mph 91 % 0.00 in 71 W/m2
11:31 50.6 °F 48.1 °F 29.26 in SSE 16.0 mph -999.0 mph 91 % 0.00 in 71 W/m2
11:36 50.6 °F 48.1 °F 29.26 in SSE 16.0 mph -999.0 mph 91 % 0.00 in 71 W/m2
11:41 50.8 °F 48.3 °F 29.26 in SSE 14.0 mph -999.0 mph 91 % 0.00 in 82 W/m2
11:46 50.8 °F 48.3 °F 29.26 in SSE 14.0 mph -999.0 mph 91 % 0.00 in 82 W/m2
11:51 50.8 °F 48.3 °F 29.26 in SSE 14.0 mph -999.0 mph 91 % 0.00 in 82 W/m2
11:56 50.7 °F 48.2 °F 29.25 in SSE 14.0 mph -999.0 mph 91 % 0.00 in 46 W/m2
12:01 50.7 °F 48.2 °F 29.25 in SSE 14.0 mph -999.0 mph 91 % 0.00 in 46 W/m2
12:06 50.7 °F 48.2 °F 29.25 in SSE 14.0 mph -999.0 mph 91 % 0.00 in 46 W/m2
12:11 50.9 °F 48.4 °F 29.24 in SSE 14.0 mph -999.0 mph 91 % 0.00 in 68 W/m2
12:16 50.9 °F 48.4 °F 29.24 in SSE 14.0 mph -999.0 mph 91 % 0.00 in 68 W/m2
12:21 50.9 °F 48.4 °F 29.24 in SSE 14.0 mph -999.0 mph 91 % 0.00 in 68 W/m2
12:26 51.2 °F 48.4 °F 29.24 in SSE 14.0 mph -999.0 mph 90 % 0.00 in 86 W/m2
12:31 51.2 °F 48.4 °F 29.24 in SSE 14.0 mph -999.0 mph 90 % 0.00 in 86 W/m2
12:36 51.2 °F 48.4 °F 29.24 in SSE 14.0 mph -999.0 mph 90 % 0.00 in 86 W/m2
12:41 51.4 °F 48.6 °F 29.24 in SSE 14.0 mph -999.0 mph 90 % 0.00 in 58 W/m2
12:46 51.4 °F 48.6 °F 29.24 in SSE 14.0 mph -999.0 mph 90 % 0.00 in 58 W/m2
12:51 51.4 °F 48.6 °F 29.24 in SSE 14.0 mph -999.0 mph 90 % 0.00 in 58 W/m2
12:56 51.5 °F 48.7 °F 29.23 in SSE 14.0 mph -999.0 mph 90 % 0.00 in 32 W/m2
13:01 51.5 °F 48.7 °F 29.23 in SSE 14.0 mph -999.0 mph 90 % 0.00 in 32 W/m2
13:06 51.5 °F 48.7 °F 29.23 in SSE 14.0 mph -999.0 mph 90 % 0.00 in 32 W/m2
13:11 51.6 °F 48.8 °F 29.23 in SSE 14.0 mph -999.0 mph 90 % 0.00 in 41 W/m2
13:16 51.6 °F 48.8 °F 29.23 in SSE 14.0 mph -999.0 mph 90 % 0.00 in 41 W/m2
13:21 51.6 °F 48.8 °F 29.23 in SSE 14.0 mph -999.0 mph 90 % 0.00 in 41 W/m2
13:26 51.7 °F 48.6 °F 29.22 in SSE 12.0 mph -999.0 mph 89 % 0.00 in 54 W/m2
13:31 51.7 °F 48.6 °F 29.22 in SSE 12.0 mph -999.0 mph 89 % 0.00 in 54 W/m2
13:36 51.7 °F 48.6 °F 29.22 in SSE 12.0 mph -999.0 mph 89 % 0.00 in 54 W/m2
13:41 51.8 °F 48.7 °F 29.21 in SE 12.0 mph -999.0 mph 89 % 0.00 in 31 W/m2
13:46 51.8 °F 48.7 °F 29.21 in SE 12.0 mph -999.0 mph 89 % 0.00 in 31 W/m2
13:51 51.8 °F 48.7 °F 29.21 in SE 12.0 mph -999.0 mph 89 % 0.00 in 31 W/m2
13:56 51.8 °F 48.7 °F 29.21 in SSE 12.0 mph -999.0 mph 89 % 0.00 in 16 W/m2
14:01 51.8 °F 48.7 °F 29.21 in SSE 12.0 mph -999.0 mph 89 % 0.00 in 16 W/m2
14:06 51.8 °F 48.7 °F 29.21 in SSE 12.0 mph -999.0 mph 89 % 0.00 in 16 W/m2
14:11 51.6 °F 48.8 °F 29.21 in SSE 14.0 mph -999.0 mph 90 % 0.00 in 13 W/m2
14:16 51.6 °F 48.8 °F 29.21 in SSE 14.0 mph -999.0 mph 90 % 0.00 in 13 W/m2
14:21 51.6 °F 48.8 °F 29.21 in SSE 14.0 mph -999.0 mph 90 % 0.00 in 13 W/m2
14:26 51.3 °F 48.8 °F 29.21 in SE 12.0 mph -999.0 mph 91 % 0.00 in 13 W/m2
14:31 51.3 °F 48.8 °F 29.21 in SE 12.0 mph -999.0 mph 91 % 0.00 in 13 W/m2
14:36 51.3 °F 48.8 °F 29.21 in SE 12.0 mph -999.0 mph 91 % 0.00 in 13 W/m2
14:41 51.0 °F 48.8 °F 29.20 in SSE 11.0 mph -999.0 mph 92 % 0.00 in 17 W/m2
14:46 51.0 °F 48.8 °F 29.20 in SSE 11.0 mph -999.0 mph 92 % 0.00 in 17 W/m2
14:51 51.0 °F 48.8 °F 29.20 in SSE 11.0 mph -999.0 mph 92 % 0.00 in 17 W/m2
14:56 51.0 °F 48.5 °F 29.21 in SE 12.0 mph -999.0 mph 91 % 0.00 in 45 W/m2
15:01 51.0 °F 48.5 °F 29.21 in SE 12.0 mph -999.0 mph 91 % 0.00 in 45 W/m2
15:06 51.0 °F 48.5 °F 29.21 in SE 12.0 mph -999.0 mph 91 % 0.00 in 45 W/m2
15:11 51.2 °F 48.4 °F 29.20 in SE 12.0 mph -999.0 mph 90 % 0.00 in 22 W/m2
15:40 51.3 °F 47.9 °F 29.21 in ESE 10.0 mph 10.0 mph 88 % 0.00 in 9 W/m2
15:50 51.4 °F 47.7 °F 29.20 in SSE 11.0 mph 13.0 mph 87 % 0.00 in 40 W/m2
15:55 51.5 °F 47.8 °F 29.20 in ESE 12.0 mph 13.0 mph 87 % 0.00 in 46 W/m2
16:00 51.5 °F 47.5 °F 29.20 in SSE 12.0 mph 12.0 mph 86 % 0.00 in 42 W/m2
16:05 51.6 °F 47.5 °F 29.20 in SSE 12.0 mph 12.0 mph 86 % 0.00 in 44 W/m2
16:10 51.6 °F 47.5 °F 29.20 in SSE 11.0 mph 11.0 mph 86 % 0.00 in 32 W/m2
16:15 51.7 °F 47.6 °F 29.20 in SE 11.0 mph 12.0 mph 86 % 0.00 in 21 W/m2
16:20 51.7 °F 47.3 °F 29.20 in SE 13.0 mph 21.0 mph 85 % 0.00 in 7 W/m2
16:25 51.7 °F 47.3 °F 29.20 in SSE 13.0 mph 21.0 mph 85 % 0.00 in 7 W/m2
16:30 51.7 °F 47.3 °F 29.20 in South 12.0 mph 12.0 mph 85 % 0.00 in 7 W/m2
16:35 51.6 °F 47.5 °F 29.20 in SSE 10.0 mph 16.0 mph 86 % 0.00 in 12 W/m2
16:45 51.8 °F 47.4 °F 29.20 in South 14.0 mph 21.0 mph 85 % 0.00 in 14 W/m2
16:50 51.7 °F 47.3 °F 29.20 in SE 12.0 mph 21.0 mph 85 % 0.00 in 14 W/m2
17:00 51.7 °F 47.3 °F 29.20 in South 12.0 mph 12.0 mph 85 % 0.00 in 0 W/m2
17:05 51.8 °F 47.1 °F 29.19 in SSE 12.0 mph 21.0 mph 84 % 0.00 in 0 W/m2
17:10 51.8 °F 47.1 °F 29.20 in SE 12.0 mph 21.0 mph 84 % 0.00 in 0 W/m2
17:15 51.9 °F 47.2 °F 29.20 in South 14.0 mph 21.0 mph 84 % 0.00 in 0 W/m2
17:20 51.9 °F 47.2 °F 29.20 in South 14.0 mph 21.0 mph 84 % 0.00 in 0 W/m2
17:30 51.8 °F 47.1 °F 29.19 in SSE 11.0 mph 21.0 mph 84 % 0.00 in 0 W/m2
17:35 51.7 °F 47.0 °F 29.19 in South 11.0 mph 21.0 mph 84 % 0.00 in 0 W/m2
17:40 51.7 °F 47.0 °F 29.19 in SSE 12.0 mph 21.0 mph 84 % 0.00 in 0 W/m2
17:45 51.6 °F 47.2 °F 29.20 in SSE 13.0 mph 21.0 mph 85 % 0.00 in 0 W/m2
17:50 51.6 °F 47.2 °F 29.19 in SE 13.0 mph 13.0 mph 85 % 0.00 in 0 W/m2
18:00 51.6 °F 47.2 °F 29.19 in SSE 13.0 mph 13.0 mph 85 % 0.00 in 0 W/m2
18:05 51.6 °F 47.2 °F 29.19 in SE 13.0 mph 15.0 mph 85 % 0.00 in 0 W/m2
18:10 51.6 °F 47.5 °F 29.19 in SE 14.0 mph 14.0 mph 86 % 0.00 in 0 W/m2
18:15 51.4 °F 47.4 °F 29.19 in South 13.0 mph 21.0 mph 86 % 0.00 in 0 W/m2
18:20 51.3 °F 47.3 °F 29.18 in South 11.0 mph 21.0 mph 86 % 0.00 in 0 W/m2
18:25 51.3 °F 47.6 °F 29.18 in SSE 12.0 mph 21.0 mph 87 % 0.00 in 0 W/m2
18:35 51.3 °F 47.6 °F 29.18 in SSE 12.0 mph 21.0 mph 87 % 0.00 in 0 W/m2
18:40 51.3 °F 47.6 °F 29.18 in SSE 12.0 mph 21.0 mph 87 % 0.00 in 0 W/m2
18:45 51.4 °F 47.7 °F 29.18 in SSE 13.0 mph 21.0 mph 87 % 0.00 in 0 W/m2
18:55 51.4 °F 47.4 °F 29.19 in SSE 13.0 mph 21.0 mph 86 % 0.00 in 0 W/m2
19:00 51.5 °F 47.5 °F 29.19 in South 14.0 mph 14.0 mph 86 % 0.00 in 0 W/m2
19:09 51.6 °F 47.2 °F 29.19 in SSE 11.0 mph 21.0 mph 85 % 0.00 in 0 W/m2
19:15 51.7 °F 47.3 °F 29.19 in South 12.0 mph 21.0 mph 85 % 0.00 in 0 W/m2
19:20 51.8 °F 47.4 °F 29.19 in South 12.0 mph 12.0 mph 85 % 0.00 in 0 W/m2
19:25 51.9 °F 47.5 °F 29.19 in SSE 12.0 mph 13.0 mph 85 % 0.00 in 0 W/m2
19:30 51.9 °F 47.2 °F 29.19 in South 13.0 mph 13.0 mph 84 % 0.00 in 0 W/m2
19:40 51.9 °F 47.2 °F 29.19 in South 13.0 mph 13.0 mph 84 % 0.00 in 0 W/m2
19:45 51.9 °F 47.2 °F 29.19 in East 14.0 mph 14.0 mph 84 % 0.00 in 0 W/m2
19:50 51.9 °F 47.2 °F 29.19 in ESE 13.0 mph 13.0 mph 84 % 0.00 in 0 W/m2
19:55 51.9 °F 47.2 °F 29.19 in SE 13.0 mph 16.0 mph 84 % 0.00 in 0 W/m2
20:00 52.0 °F 47.3 °F 29.19 in SE 14.0 mph 14.0 mph 84 % 0.00 in 0 W/m2
20:05 51.9 °F 46.9 °F 29.19 in South 15.0 mph 18.0 mph 83 % 0.00 in 0 W/m2
20:15 51.9 °F 47.2 °F 29.19 in South 13.0 mph 21.0 mph 84 % 0.00 in 0 W/m2
20:20 51.7 °F 47.3 °F 29.19 in SSE 12.0 mph 21.0 mph 85 % 0.00 in 0 W/m2
20:25 51.5 °F 47.1 °F 29.19 in SE 14.0 mph 21.0 mph 85 % 0.00 in 0 W/m2
20:30 51.4 °F 47.0 °F 29.19 in South 14.0 mph 21.0 mph 85 % 0.00 in 0 W/m2
20:35 51.5 °F 47.1 °F 29.18 in South 15.0 mph 21.0 mph 85 % 0.00 in 0 W/m2
20:45 51.7 °F 46.7 °F 29.18 in SE 16.0 mph 21.0 mph 83 % 0.00 in 0 W/m2
20:50 51.7 °F 46.4 °F 29.18 in SSW 16.0 mph 16.0 mph 82 % 0.00 in 0 W/m2
20:55 51.6 °F 46.3 °F 29.18 in SE 17.0 mph 23.0 mph 82 % 0.00 in 0 W/m2
21:00 51.5 °F 46.2 °F 29.18 in SE 16.0 mph 21.0 mph 82 % 0.00 in 0 W/m2
21:05 51.3 °F 46.0 °F 29.18 in South 15.0 mph 21.0 mph 82 % 0.00 in 0 W/m2
21:10 51.2 °F 45.9 °F 29.18 in South 16.0 mph 27.0 mph 82 % 0.00 in 0 W/m2
21:20 51.0 °F 45.7 °F 29.18 in SSE 16.0 mph 21.0 mph 82 % 0.00 in 0 W/m2
21:25 51.0 °F 45.7 °F 29.17 in SSE 17.0 mph 21.0 mph 82 % 0.00 in 0 W/m2
21:30 50.9 °F 45.6 °F 29.18 in South 15.0 mph 21.0 mph 82 % 0.00 in 0 W/m2
21:35 50.9 °F 45.6 °F 29.18 in SSW 14.0 mph 21.0 mph 82 % 0.00 in 0 W/m2
21:40 51.0 °F 45.7 °F 29.18 in South 16.0 mph 16.0 mph 82 % 0.00 in 0 W/m2
21:45 51.0 °F 45.7 °F 29.18 in South 16.0 mph 30.0 mph 82 % 0.00 in 0 W/m2
21:50 51.1 °F 45.5 °F 29.18 in South 18.0 mph 23.0 mph 81 % 0.00 in 0 W/m2
21:55 51.0 °F 45.4 °F 29.17 in SSW 17.0 mph 28.0 mph 81 % 0.00 in 0 W/m2
22:00 51.0 °F 45.4 °F 29.18 in South 17.0 mph 17.0 mph 81 % 0.00 in 0 W/m2
22:05 51.0 °F 45.4 °F 29.18 in South 17.0 mph 23.0 mph 81 % 0.00 in 0 W/m2
22:10 51.0 °F 45.4 °F 29.18 in SSW 16.0 mph 16.0 mph 81 % 0.00 in 0 W/m2
22:15 51.1 °F 45.5 °F 29.18 in SSE 17.0 mph 17.0 mph 81 % 0.00 in 0 W/m2
22:25 51.0 °F 45.4 °F 29.17 in SSE 14.0 mph 21.0 mph 81 % 0.00 in 0 W/m2
22:30 50.9 °F 45.3 °F 29.17 in South 14.0 mph 14.0 mph 81 % 0.00 in 0 W/m2
22:35 50.9 °F 44.9 °F 29.17 in SSE 16.0 mph 16.0 mph 80 % 0.00 in 0 W/m2
22:44 50.8 °F 44.9 °F 29.17 in SSW 16.0 mph 18.0 mph 80 % 0.00 in 0 W/m2
22:50 50.8 °F 44.9 °F 29.17 in SSW 17.0 mph 17.0 mph 80 % 0.00 in 0 W/m2
22:55 50.8 °F 44.9 °F 29.17 in SSE 18.0 mph 18.0 mph 80 % 0.00 in 0 W/m2
23:04 50.7 °F 44.8 °F 29.17 in South 17.0 mph 21.0 mph 80 % 0.00 in 0 W/m2
23:10 50.8 °F 44.9 °F 29.17 in SSE 18.0 mph 21.0 mph 80 % 0.00 in 0 W/m2
23:15 50.9 °F 44.6 °F 29.18 in SSE 18.0 mph 24.0 mph 79 % 0.00 in 0 W/m2
23:20 50.9 °F 44.6 °F 29.18 in South 17.0 mph 17.0 mph 79 % 0.00 in 0 W/m2
23:24 50.9 °F 44.6 °F 29.19 in SSW 16.0 mph 21.0 mph 79 % 0.00 in 0 W/m2
23:30 51.0 °F 44.4 °F 29.19 in SSW 16.0 mph 26.0 mph 78 % 0.00 in 0 W/m2
23:35 51.0 °F 44.4 °F 29.19 in South 17.0 mph 26.0 mph 78 % 0.00 in 0 W/m2
23:40 50.9 °F 44.3 °F 29.19 in SW 16.0 mph 16.0 mph 78 % 0.00 in 0 W/m2
23:45 51.0 °F 44.4 °F 29.19 in SSW 16.0 mph 26.0 mph 78 % 0.00 in 0 W/m2
23:50 50.9 °F 44.3 °F 29.19 in South 17.0 mph 21.0 mph 78 % 0.00 in 0 W/m2
23:55 50.8 °F 44.2 °F 29.19 in South 15.0 mph 21.0 mph 78 % 0.00 in 0 W/m2
Delerius-Weather
Compliments of Weather Underground - 2.25 mb

Data updates at regular intervals.